Time;durP1;ratioP1;P1;durP2;ratioP2;P2;SDS_P1;SDS_P2;PMS_P1;PMS_P2;Temp;Humidity;BMP_temperature;BMP_pressure;BME280_temperature;BME280_humidity;BME280_pressure;Samples;Min_cycle;Max_cycle;Signal;HPM_P1;HPM_P2
2023/02/05 00:00:29;;;;;;;0.60;0.60;;;;;;;1.91;90.32;98824.16;29373;232;63004;-59
2023/02/05 00:01:00;;;;;;;0.50;0.50;;;;;;;1.91;90.54;98822.31;29395;266;63009;-59
2023/02/05 00:01:31;;;;;;;0.60;0.60;;;;;;;1.92;90.29;98817.78;29395;305;63004;-60
2023/02/05 00:02:03;;;;;;;0.80;0.80;;;;;;;1.92;90.44;98823.97;29373;263;63008;-58
2023/02/05 00:02:34;;;;;;;0.60;0.60;;;;;;;1.92;90.59;98818.59;29371;235;63999;-59
2023/02/05 00:03:05;;;;;;;0.60;0.60;;;;;;;1.93;90.38;98816.75;29373;255;63009;-67
2023/02/05 00:03:37;;;;;;;0.60;0.60;;;;;;;1.92;90.31;98817.78;29395;200;63005;-59
2023/02/05 00:04:09;;;;;;;0.60;0.60;;;;;;;1.92;90.50;98823.12;29395;233;63009;-59
2023/02/05 00:04:41;;;;;;;0.60;0.60;;;;;;;1.91;90.70;98811.59;29395;210;63005;-59
2023/02/05 00:05:15;;;;;;;0.60;0.60;;;;;;;1.91;90.88;98822.31;29371;262;64013;-59
2023/02/05 00:05:47;;;;;;;0.60;0.60;;;;;;;1.91;90.71;98821.47;29395;231;63005;-58
2023/02/05 00:06:19;;;;;;;0.60;0.60;;;;;;;1.90;90.75;98823.31;29371;217;64013;-58
2023/02/05 00:06:51;;;;;;;0.60;0.60;;;;;;;1.90;90.50;98826.00;29395;245;63004;-60
2023/02/05 00:07:23;;;;;;;0.60;0.60;;;;;;;1.89;90.52;98821.66;29373;261;63011;-59
2023/02/05 00:07:54;;;;;;;0.60;0.60;;;;;;;1.88;90.27;98825.34;29395;265;63004;-58
2023/02/05 00:08:26;;;;;;;0.60;0.60;;;;;;;1.87;90.40;98818.34;29394;219;64009;-59
2023/02/05 00:08:57;;;;;;;0.60;0.60;;;;;;;1.89;90.35;98826.19;29395;247;63004;-59
2023/02/05 00:09:29;;;;;;;0.50;0.50;;;;;;;1.88;90.25;98828.03;29373;215;63008;-60
2023/02/05 00:10:03;;;;;;;0.60;0.60;;;;;;;1.90;90.29;98826.00;29395;228;63001;-67
2023/02/05 00:10:35;;;;;;;0.60;0.60;;;;;;;1.90;90.24;98820.66;29394;214;64014;-69
2023/02/05 00:11:08;;;;;;;0.60;0.60;;;;;;;1.91;90.16;98827.66;29395;240;63005;-59
2023/02/05 00:11:41;;;;;;;0.60;0.60;;;;;;;1.91;90.45;98824.97;29373;211;63009;-59
2023/02/05 00:12:13;;;;;;;0.50;0.50;;;;;;;1.89;89.92;98818.97;29395;225;63005;-58
2023/02/05 00:12:45;;;;;;;0.60;0.60;;;;;;;1.91;90.30;98821.47;29395;222;63009;-59
2023/02/05 00:13:16;;;;;;;0.60;0.60;;;;;;;1.90;90.14;98820.66;29373;239;63012;-60
2023/02/05 00:13:48;;;;;;;0.60;0.60;;;;;;;1.91;90.11;98824.97;29373;241;63018;-59
2023/02/05 00:14:20;;;;;;;0.50;0.50;;;;;;;1.91;89.98;98816.94;29373;221;63004;-59
2023/02/05 00:14:51;;;;;;;0.52;0.52;;;;;;;1.94;90.19;98821.09;29395;235;63009;-59
2023/02/05 00:15:23;;;;;;;0.50;0.50;;;;;;;1.94;90.28;98816.56;29394;222;64009;-68
2023/02/05 00:15:54;;;;;;;0.60;0.60;;;;;;;1.94;90.17;98819.25;29395;240;63009;-59
2023/02/05 00:16:26;;;;;;;0.50;0.50;;;;;;;1.95;90.14;98822.75;29395;261;63004;-59
2023/02/05 00:16:57;;;;;;;0.50;0.50;;;;;;;1.96;89.89;98824.41;29373;207;63008;-59
2023/02/05 00:17:30;;;;;;;0.60;0.60;;;;;;;1.96;90.03;98811.84;29395;209;63005;-60
2023/02/05 00:18:03;;;;;;;0.50;0.50;;;;;;;1.97;89.90;98816.19;29395;209;63009;-59
2023/02/05 00:18:36;;;;;;;0.60;0.60;;;;;;;1.97;89.93;98824.22;29395;234;63005;-68
2023/02/05 00:19:07;;;;;;;0.55;0.55;;;;;;;1.97;89.90;98821.53;29395;318;63009;-59
2023/02/05 00:19:39;;;;;;;0.52;0.52;;;;;;;1.98;89.49;98811.66;29373;216;63005;-69
2023/02/05 00:20:11;;;;;;;0.60;0.60;;;;;;;1.99;89.57;98814.16;29394;232;64013;-59
2023/02/05 00:20:42;;;;;;;0.50;0.50;;;;;;;1.99;89.51;98814.16;29394;222;63999;-68
2023/02/05 00:21:16;;;;;;;0.60;0.60;;;;;;;2.00;89.73;98818.50;29395;215;63009;-69
2023/02/05 00:21:49;;;;;;;0.60;0.60;;;;;;;1.99;89.45;98808.78;29395;237;63004;-59
2023/02/05 00:22:22;;;;;;;0.60;0.60;;;;;;;2.01;89.50;98808.59;29395;220;63009;-59
2023/02/05 00:22:53;;;;;;;0.73;0.73;;;;;;;2.00;89.39;98810.47;29395;226;63004;-59
2023/02/05 00:23:25;;;;;;;0.60;0.60;;;;;;;2.00;89.47;98810.47;29395;249;63009;-70
2023/02/05 00:23:56;;;;;;;0.57;0.57;;;;;;;1.98;89.48;98801.78;29373;215;63004;-59
2023/02/05 00:24:28;;;;;;;0.60;0.60;;;;;;;2.02;89.51;98802.22;29395;220;63008;-60
2023/02/05 00:24:59;;;;;;;0.60;0.60;;;;;;;2.03;89.27;98795.84;29395;229;63004;-68
2023/02/05 00:25:31;;;;;;;0.60;0.60;;;;;;;2.05;89.21;98806.38;29373;223;63009;-69
2023/02/05 00:26:04;;;;;;;0.60;0.60;;;;;;;2.05;89.20;98806.38;29394;221;64009;-58
2023/02/05 00:26:37;;;;;;;0.60;0.60;;;;;;;2.06;89.05;98803.50;29395;220;63009;-69
2023/02/05 00:27:10;;;;;;;0.60;0.60;;;;;;;2.08;89.18;98803.31;29395;203;63005;-70
2023/02/05 00:27:41;;;;;;;0.60;0.60;;;;;;;2.08;88.65;98806.00;29373;294;63009;-59
2023/02/05 00:28:13;;;;;;;0.60;0.60;;;;;;;2.08;88.25;98800.66;29395;259;63005;-59
2023/02/05 00:28:46;;;;;;;0.60;0.60;;;;;;;2.08;88.66;98806.00;29395;230;63009;-67
2023/02/05 00:29:18;;;;;;;0.60;0.60;;;;;;;2.08;88.30;98806.00;29394;233;64009;-60
2023/02/05 00:29:49;;;;;;;0.55;0.55;;;;;;;2.08;88.06;98806.00;29395;222;63009;-60
2023/02/05 00:30:25;;;;;;;0.60;0.60;;;;;;;2.09;88.09;98807.62;29395;228;63004;-69
2023/02/05 00:30:56;;;;;;;0.60;0.60;;;;;;;2.09;88.39;98802.28;29395;202;63008;-58
2023/02/05 00:31:31;;;;;;;0.68;0.68;;;;;;;2.09;88.37;98802.28;29395;224;63004;-69
2023/02/05 00:32:03;;;;;;;0.60;0.60;;;;;;;2.09;88.35;98800.41;29394;238;64009;-69
2023/02/05 00:32:37;;;;;;;0.60;0.60;;;;;;;2.09;88.76;98802.28;29373;254;63005;-58
2023/02/05 00:33:09;;;;;;;0.60;0.60;;;;;;;2.08;88.57;98801.44;29395;233;63009;-59
2023/02/05 00:33:40;;;;;;;0.60;0.60;;;;;;;2.08;88.65;98797.97;29395;239;63005;-67
2023/02/05 00:34:11;;;;;;;0.60;0.60;;;;;;;2.07;88.62;98790.94;29373;197;63017;-60
2023/02/05 00:34:44;;;;;;;0.60;0.60;;;;;;;2.08;88.56;98789.94;29371;218;64009;-60
2023/02/05 00:35:15;;;;;;;0.60;0.60;;;;;;;2.07;88.53;98796.31;29395;197;63009;-60
2023/02/05 00:35:46;;;;;;;0.60;0.60;;;;;;;2.06;88.28;98786.63;29395;249;63005;-59
2023/02/05 00:36:19;;;;;;;0.60;0.60;;;;;;;2.05;88.46;98791.13;29373;232;63004;-70
2023/02/05 00:36:50;;;;;;;0.60;0.60;;;;;;;2.06;88.52;98791.97;29395;322;63004;-59
2023/02/05 00:37:22;;;;;;;0.50;0.50;;;;;;;2.05;88.30;98784.97;29373;228;63009;-67
2023/02/05 00:37:57;;;;;;;0.52;0.52;;;;;;;2.05;88.29;98784.97;29395;241;63004;-70
2023/02/05 00:38:29;;;;;;;0.60;0.60;;;;;;;2.05;88.44;98785.78;29373;219;63008;-59
2023/02/05 00:39:00;;;;;;;0.50;0.50;;;;;;;2.06;88.47;98787.44;29395;235;63004;-59
2023/02/05 00:39:32;;;;;;;0.60;0.60;;;;;;;2.06;88.48;98786.63;29394;221;64014;-69
2023/02/05 00:40:04;;;;;;;0.60;0.60;;;;;;;2.05;88.21;98782.28;29395;214;63005;-69
2023/02/05 00:40:36;;;;;;;0.60;0.60;;;;;;;2.04;88.27;98789.47;29373;223;63009;-69
2023/02/05 00:41:09;;;;;;;0.60;0.60;;;;;;;2.04;88.21;98789.47;29395;220;63009;-60
2023/02/05 00:41:40;;;;;;;0.60;0.60;;;;;;;2.05;88.27;98793.00;29395;335;63009;-68
2023/02/05 00:42:11;;;;;;;0.60;0.60;;;;;;;2.06;88.31;98791.97;29373;245;63011;-69
2023/02/05 00:42:43;;;;;;;0.60;0.60;;;;;;;2.07;88.55;98789.09;29395;245;63009;-60
2023/02/05 00:43:15;;;;;;;0.60;0.60;;;;;;;2.07;88.37;98794.47;29395;202;63005;-70
2023/02/05 00:43:48;;;;;;;0.60;0.60;;;;;;;2.08;88.44;98793.41;29395;244;63009;-59
2023/02/05 00:44:19;;;;;;;1.95;1.90;;;;;;;2.09;88.26;98791.56;29394;202;64009;-68
2023/02/05 00:44:51;;;;;;;0.60;0.60;;;;;;;2.08;88.49;98789.94;29395;242;63009;-70
2023/02/05 00:45:22;;;;;;;0.50;0.50;;;;;;;2.08;88.23;98790.72;29373;270;63004;-70
2023/02/05 00:45:57;;;;;;;0.60;0.60;;;;;;;2.10;88.21;98798.56;29373;244;63009;-59
2023/02/05 00:46:30;;;;;;;0.52;0.52;;;;;;;2.09;88.33;98792.38;29373;219;63008;-59
2023/02/05 00:47:01;;;;;;;0.50;0.50;;;;;;;2.10;88.13;98794.03;29395;203;63009;-60
2023/02/05 00:47:33;;;;;;;0.60;0.60;;;;;;;2.10;88.07;98790.53;29373;203;63005;-71
2023/02/05 00:48:05;;;;;;;0.60;0.60;;;;;;;2.09;88.23;98789.72;29373;238;63009;-58
2023/02/05 00:48:37;;;;;;;0.60;0.60;;;;;;;2.08;88.02;98790.72;29373;215;63005;-68
2023/02/05 00:49:08;;;;;;;0.50;0.50;;;;;;;2.07;88.25;98793.62;29373;313;63009;-67
2023/02/05 00:49:39;;;;;;;0.60;0.60;;;;;;;2.08;88.16;98792.59;29371;228;64009;-60
2023/02/05 00:50:11;;;;;;;0.50;0.50;;;;;;;2.07;88.47;98789.09;29371;239;64013;-68
2023/02/05 00:50:50;;;;;;;0.60;0.60;;;;;;;2.08;88.57;98789.94;29395;230;63005;-59
2023/02/05 00:51:22;;;;;;;0.60;0.60;;;;;;;2.08;88.51;98789.94;29373;283;63009;-69
2023/02/05 00:51:54;;;;;;;0.60;0.60;;;;;;;2.06;88.69;98795.47;29371;279;64009;-69
2023/02/05 00:52:25;;;;;;;0.60;0.60;;;;;;;2.06;88.50;98794.66;29372;219;63009;-68
2023/02/05 00:52:56;;;;;;;0.60;0.60;;;;;;;2.07;88.75;98793.62;29373;283;63004;-70
2023/02/05 00:53:28;;;;;;;0.60;0.60;;;;;;;2.08;88.62;98792.59;29373;330;63009;-59
2023/02/05 00:53:59;;;;;;;0.60;0.60;;;;;;;2.08;88.40;98800.66;29373;298;63004;-68
2023/02/05 00:54:31;;;;;;;0.50;0.50;;;;;;;2.06;88.68;98800.84;29373;227;63009;-68
2023/02/05 00:55:06;;;;;;;1.62;1.62;;;;;;;2.10;88.41;98806.59;29373;280;63005;-69
2023/02/05 00:55:37;;;;;;;0.60;0.60;;;;;;;2.11;88.51;98805.59;29373;328;63009;-59
2023/02/05 00:56:10;;;;;;;0.50;0.50;;;;;;;2.11;88.60;98800.22;29371;203;64009;-69
2023/02/05 00:56:41;;;;;;;0.50;0.50;;;;;;;2.11;88.53;98794.88;29373;223;63009;-69
2023/02/05 00:57:12;;;;;;;0.60;0.60;;;;;;;2.13;88.61;98803.53;29373;302;63005;-60
2023/02/05 00:57:43;;;;;;;0.50;0.50;;;;;;;2.13;88.35;98799.03;29373;228;63019;-60
2023/02/05 00:58:18;;;;;;;0.60;0.60;;;;;;;2.13;88.30;98798.19;29373;262;63005;-60
2023/02/05 00:58:50;;;;;;;0.50;0.50;;;;;;;2.12;88.48;98802.72;29371;321;64013;-59
2023/02/05 00:59:21;;;;;;;0.50;0.50;;;;;;;2.11;88.29;98795.69;29373;307;63010;-60
2023/02/05 00:59:53;;;;;;;0.50;0.50;;;;;;;2.09;88.18;98803.09;29373;286;63009;-59
2023/02/05 01:00:25;;;;;;;0.60;0.60;;;;;;;2.09;88.44;98797.75;29371;212;64009;-67
2023/02/05 01:01:02;;;;;;;0.60;0.60;;;;;;;2.09;88.50;98799.59;29395;262;63009;-59
2023/02/05 01:01:33;;;;;;;0.60;0.60;;;;;;;2.07;88.28;98799.81;29373;206;63004;-60
2023/02/05 01:02:06;;;;;;;0.80;0.80;;;;;;;2.09;88.35;98802.28;29373;220;63009;-67
2023/02/05 01:02:37;;;;;;;0.60;0.60;;;;;;;2.09;88.55;98797.75;29395;237;63005;-59
2023/02/05 01:03:09;;;;;;;0.60;0.60;;;;;;;2.08;88.34;98800.66;29395;237;63009;-58
2023/02/05 01:03:41;;;;;;;0.55;0.55;;;;;;;2.07;88.71;98799.81;29395;212;63005;-70
2023/02/05 01:04:12;;;;;;;0.60;0.60;;;;;;;2.07;88.56;98797.13;29395;202;63023;-59
2023/02/05 01:04:43;;;;;;;0.60;0.60;;;;;;;2.06;88.56;98792.78;29373;221;63000;-71
2023/02/05 01:05:15;;;;;;;0.60;0.60;;;;;;;2.03;88.04;98797.72;29395;207;63009;-68
2023/02/05 01:05:46;;;;;;;0.60;0.60;;;;;;;2.01;88.23;98795.22;29371;255;64009;-59
2023/02/05 01:06:19;;;;;;;0.60;0.60;;;;;;;2.03;88.29;98803.06;29373;216;63009;-68
2023/02/05 01:06:51;;;;;;;0.60;0.60;;;;;;;2.03;88.48;98793.19;29373;351;63004;-59
2023/02/05 01:07:22;;;;;;;0.50;0.50;;;;;;;2.05;88.38;98793.81;29373;262;63016;-59
2023/02/05 01:07:57;;;;;;;0.60;0.60;;;;;;;2.06;88.37;98791.97;29373;237;63004;-68
2023/02/05 01:08:28;;;;;;;0.50;0.50;;;;;;;2.07;88.34;98798.97;29373;214;63009;-70
2023/02/05 01:09:00;;;;;;;0.50;0.50;;;;;;;2.07;88.18;98789.09;29394;207;64008;-60
2023/02/05 01:09:31;;;;;;;0.50;0.50;;;;;;;2.09;87.79;98791.56;29395;226;63009;-68
2023/02/05 01:10:08;;;;;;;0.50;0.50;;;;;;;2.11;87.37;98789.50;29373;217;63005;-68
2023/02/05 01:10:44;;;;;;;0.70;0.70;;;;;;;2.16;86.61;98792.44;29395;210;63009;-59
2023/02/05 01:11:16;;;;;;;0.60;0.60;;;;;;;2.19;86.37;98786.72;29373;237;63005;-68
2023/02/05 01:11:47;;;;;;;0.60;0.60;;;;;;;2.21;86.16;98792.69;29395;214;63009;-58
2023/02/05 01:12:18;;;;;;;0.60;0.60;;;;;;;2.21;85.84;98792.69;29395;237;63005;-69
2023/02/05 01:12:50;;;;;;;0.60;0.60;;;;;;;2.19;86.08;98792.06;29395;205;63020;-68
2023/02/05 01:13:24;;;;;;;0.50;0.50;;;;;;;2.18;86.21;98795.75;29395;290;63005;-69
2023/02/05 01:13:55;;;;;;;0.60;0.60;;;;;;;2.18;86.50;98799.28;29395;282;63009;-58
2023/02/05 01:14:27;;;;;;;0.50;0.50;;;;;;;2.17;86.54;98796.78;29394;242;64009;-59
2023/02/05 01:14:59;;;;;;;0.50;0.50;;;;;;;2.17;86.56;98799.47;29395;218;63009;-59
2023/02/05 01:15:31;;;;;;;0.60;0.60;;;;;;;2.16;86.70;98792.44;29395;198;63004;-58
2023/02/05 01:16:03;;;;;;;0.50;0.50;;;;;;;2.15;87.10;98796.16;29395;198;63009;-71
2023/02/05 01:16:35;;;;;;;0.57;0.57;;;;;;;2.14;87.05;98794.50;29395;214;63005;-59
2023/02/05 01:17:08;;;;;;;0.60;0.60;;;;;;;2.14;87.28;98805.19;29373;213;63009;-68
2023/02/05 01:17:40;;;;;;;0.50;0.50;;;;;;;2.12;87.53;98793.84;29395;240;63009;-58
2023/02/05 01:18:12;;;;;;;0.60;0.60;;;;;;;2.10;87.77;98793.22;29395;204;63009;-59
2023/02/05 01:18:43;;;;;;;0.60;0.60;;;;;;;2.12;87.98;98791.19;29395;239;63016;-60
2023/02/05 01:19:14;;;;;;;0.60;0.60;;;;;;;2.10;88.01;98793.22;29395;199;63014;-69
2023/02/05 01:19:45;;;;;;;0.60;0.60;;;;;;;2.09;88.33;98789.72;29394;211;64009;-58
2023/02/05 01:20:17;;;;;;;0.60;0.60;;;;;;;2.10;88.08;98793.22;29395;196;63009;-70
2023/02/05 01:20:49;;;;;;;0.60;0.60;;;;;;;2.11;88.18;98789.50;29395;234;63004;-59
2023/02/05 01:21:23;;;;;;;0.60;0.60;;;;;;;2.12;88.35;98785.81;29395;297;63009;-59
2023/02/05 01:21:55;;;;;;;0.60;0.60;;;;;;;2.10;87.92;98788.69;29394;230;64009;-59
2023/02/05 01:22:26;;;;;;;0.50;0.50;;;;;;;2.08;87.95;98792.59;29395;211;63009;-58
2023/02/05 01:22:57;;;;;;;0.60;0.60;;;;;;;2.07;88.32;98786.41;29395;209;63010;-59
2023/02/05 01:23:29;;;;;;;0.50;0.50;;;;;;;2.05;88.95;98782.28;29395;266;63008;-59
2023/02/05 01:24:01;;;;;;;0.60;0.60;;;;;;;2.02;88.91;98786.16;29395;229;63005;-59
2023/02/05 01:24:33;;;;;;;0.60;0.60;;;;;;;2.01;88.88;98784.50;29395;200;63009;-71
2023/02/05 01:25:05;;;;;;;0.50;0.50;;;;;;;2.00;88.79;98788.22;29395;247;63005;-67
2023/02/05 01:25:37;;;;;;;0.50;0.50;;;;;;;2.00;88.93;98777.50;29395;203;63009;-60
2023/02/05 01:26:08;;;;;;;0.60;0.60;;;;;;;2.00;89.17;98783.69;29395;204;63005;-59
2023/02/05 01:26:39;;;;;;;0.60;0.60;;;;;;;1.98;89.31;98785.72;29394;216;64013;-70
2023/02/05 01:27:11;;;;;;;0.60;0.60;;;;;;;1.98;89.16;98775.00;29373;259;63005;-59
2023/02/05 01:27:43;;;;;;;0.60;0.60;;;;;;;1.99;89.42;98782.03;29394;235;64009;-69
2023/02/05 01:28:15;;;;;;;0.50;0.50;;;;;;;1.98;89.46;98775.00;29373;262;63004;-68
2023/02/05 01:28:47;;;;;;;0.60;0.60;;;;;;;1.98;89.70;98777.69;29371;229;64013;-68
2023/02/05 01:29:20;;;;;;;0.60;0.60;;;;;;;1.99;89.59;98776.66;29395;231;63004;-69
2023/02/05 01:29:51;;;;;;;0.50;0.50;;;;;;;1.99;89.28;98779.34;29395;231;63009;-60
2023/02/05 01:30:22;;;;;;;0.60;0.60;;;;;;;1.98;89.11;98774.19;29395;223;63004;-58
2023/02/05 01:30:54;;;;;;;0.70;0.70;;;;;;;1.96;89.20;98771.69;29395;227;63008;-59
2023/02/05 01:31:28;;;;;;;0.60;0.60;;;;;;;1.96;89.03;98771.69;29395;230;63005;-60
2023/02/05 01:32:00;;;;;;;0.60;0.60;;;;;;;1.94;88.95;98781.75;29395;216;63009;-59
2023/02/05 01:32:32;;;;;;;0.60;0.60;;;;;;;1.93;88.82;98780.09;29395;269;63005;-69
2023/02/05 01:33:04;;;;;;;0.50;0.50;;;;;;;1.92;89.20;98774.94;29395;251;63009;-59
2023/02/05 01:33:36;;;;;;;0.60;0.60;;;;;;;1.91;88.76;98779.47;29373;274;63005;-69
2023/02/05 01:34:08;;;;;;;0.60;0.60;;;;;;;1.90;89.08;98783.16;29394;197;64013;-67
2023/02/05 01:34:39;;;;;;;0.60;0.60;;;;;;;1.90;88.82;98772.47;29373;222;63005;-59
2023/02/05 01:35:11;;;;;;;0.60;0.60;;;;;;;1.90;88.78;98777.81;29373;239;63009;-60
2023/02/05 01:35:43;;;;;;;0.60;0.60;;;;;;;1.91;88.99;98767.94;29373;199;63004;-58
2023/02/05 01:36:16;;;;;;;0.60;0.60;;;;;;;1.91;89.06;98773.28;29394;229;64013;-70
2023/02/05 01:36:48;;;;;;;0.60;0.60;;;;;;;1.91;88.96;98767.94;29373;274;63004;-58
2023/02/05 01:37:20;;;;;;;0.52;0.52;;;;;;;1.92;88.77;98780.28;29373;348;63026;-59
2023/02/05 01:37:51;;;;;;;0.60;0.60;;;;;;;1.91;88.99;98768.75;29373;233;63015;-58
2023/02/05 01:38:22;;;;;;;0.60;0.60;;;;;;;1.91;88.78;98771.44;29373;368;63008;-59
2023/02/05 01:38:53;;;;;;;0.60;0.60;;;;;;;1.89;88.91;98768.13;29373;216;63005;-69
2023/02/05 01:39:25;;;;;;;0.60;0.60;;;;;;;1.91;88.87;98774.13;29373;320;63009;-71
2023/02/05 01:39:57;;;;;;;0.60;0.60;;;;;;;1.90;89.12;98771.63;29372;306;64005;-71
2023/02/05 01:40:28;;;;;;;0.60;0.60;;;;;;;1.90;88.96;98772.47;29373;204;63009;-59
2023/02/05 01:40:59;;;;;;;0.52;0.52;;;;;;;1.90;89.34;98769.78;29373;214;63005;-59
2023/02/05 01:41:34;;;;;;;0.60;0.60;;;;;;;1.90;89.46;98771.63;29394;199;64013;-70
2023/02/05 01:42:25;;;;;;;0.50;0.50;;;;;;;1.90;89.05;98775.13;29395;215;63005;-68
2023/02/05 01:42:56;;;;;;;0.50;0.50;;;;;;;1.92;89.24;98772.25;29417;226;63009;-68
2023/02/05 01:43:29;;;;;;;0.52;0.52;;;;;;;1.94;89.28;98768.38;29395;234;63004;-58
2023/02/05 01:44:28;;;;;;;0.60;0.60;;;;;;;1.95;88.81;98772.72;29395;240;63009;-59
2023/02/05 01:45:41;;;;;;;0.50;0.50;;;;;;;1.97;88.27;98762.66;29395;215;63004;-59
2023/02/05 01:46:20;;;;;;;0.60;0.60;;;;;;;1.98;88.71;98764.31;29371;199;64008;-70
2023/02/05 01:46:53;;;;;;;0.60;0.60;;;;;;;1.98;88.50;98763.47;29373;202;63009;-59
2023/02/05 01:47:25;;;;;;;0.60;0.60;;;;;;;1.98;88.55;98763.47;29373;200;63005;-70
2023/02/05 01:48:01;;;;;;;0.60;0.60;;;;;;;1.98;88.37;98761.63;29372;220;64009;-69
2023/02/05 01:48:41;;;;;;;0.60;0.60;;;;;;;1.99;88.61;98760.59;29395;251;63005;-59
2023/02/05 01:49:29;;;;;;;0.60;0.60;;;;;;;1.98;88.00;98753.59;29373;223;63009;-68
2023/02/05 01:50:02;;;;;;;0.60;0.60;;;;;;;1.98;88.20;98763.47;29395;206;63005;-69
2023/02/05 01:50:41;;;;;;;0.60;0.60;;;;;;;1.96;87.97;98754.81;29394;291;64013;-59
2023/02/05 01:51:14;;;;;;;0.75;0.75;;;;;;;1.94;88.13;98763.03;29394;219;64004;-59
2023/02/05 01:51:48;;;;;;;0.60;0.60;;;;;;;1.92;88.23;98759.72;29395;235;63009;-68
2023/02/05 01:52:21;;;;;;;0.60;0.60;;;;;;;1.91;88.67;98751.87;29395;216;63004;-60
2023/02/05 01:52:54;;;;;;;0.60;0.60;;;;;;;1.89;88.55;98757.41;29395;215;63009;-58
2023/02/05 01:53:30;;;;;;;0.60;0.60;;;;;;;1.89;88.75;98752.06;29371;208;64008;-70
2023/02/05 01:54:04;;;;;;;0.60;0.60;;;;;;;1.89;88.75;98754.75;29373;245;63009;-60
2023/02/05 01:54:37;;;;;;;0.60;0.60;;;;;;;1.88;88.63;98747.72;29395;246;63015;-69
2023/02/05 01:55:11;;;;;;;0.60;0.60;;;;;;;1.88;88.57;98753.06;29395;219;63009;-69
2023/02/05 01:55:49;;;;;;;1.30;1.30;;;;;;;1.85;88.57;98748.09;29395;197;63005;-70
2023/02/05 01:56:43;;;;;;;4.25;4.12;;;;;;;1.85;88.86;98750.78;29395;237;63009;-59
2023/02/05 01:57:24;;;;;;;0.60;0.60;;;;;;;1.84;88.72;98751.81;29395;234;63005;-67
2023/02/05 01:57:57;;;;;;;0.60;0.60;;;;;;;1.84;88.54;98751.81;29439;211;63009;-68
2023/02/05 01:58:36;;;;;;;0.60;0.60;;;;;;;1.84;88.69;98746.44;29371;240;64009;-58
2023/02/05 01:59:31;;;;;;;0.50;0.50;;;;;;;1.84;88.38;98746.44;29395;257;63009;-69
2023/02/05 02:00:07;;;;;;;0.60;0.60;;;;;;;1.86;88.62;98754.28;29373;196;63004;-59
2023/02/05 02:00:59;;;;;;;0.60;0.60;;;;;;;1.82;88.72;98745.81;29373;228;63008;-68
2023/02/05 02:01:31;;;;;;;0.60;0.60;;;;;;;1.81;88.80;98744.16;29395;244;63012;-68
2023/02/05 02:02:06;;;;;;;0.60;0.60;;;;;;;1.81;88.73;98740.66;29395;275;63009;-68
2023/02/05 02:02:38;;;;;;;0.60;0.60;;;;;;;1.79;88.85;98743.50;29373;316;63005;-59
2023/02/05 02:03:22;;;;;;;0.60;0.60;;;;;;;1.78;88.75;98744.53;29371;347;64005;-68
2023/02/05 02:03:56;;;;;;;0.60;0.60;;;;;;;1.78;88.93;98741.03;29371;253;64009;-60
2023/02/05 02:04:44;;;;;;;0.60;0.60;;;;;;;1.77;88.96;98739.38;29373;215;63009;-58
2023/02/05 02:05:18;;;;;;;0.60;0.60;;;;;;;1.76;89.02;98743.06;29372;293;64009;-69
2023/02/05 02:05:49;;;;;;;0.60;0.60;;;;;;;1.75;89.08;98736.88;29373;278;63009;-70
2023/02/05 02:06:20;;;;;;;0.60;0.60;;;;;;;1.75;88.91;98736.06;29373;276;63004;-58
2023/02/05 02:06:52;;;;;;;0.60;0.60;;;;;;;1.74;89.11;98735.22;29373;322;63009;-69
2023/02/05 02:07:24;;;;;;;0.60;0.60;;;;;;;1.72;89.06;98731.94;29373;285;63004;-70
2023/02/05 02:07:55;;;;;;;0.70;0.70;;;;;;;1.73;89.16;98735.44;29373;202;63008;-69
2023/02/05 02:08:28;;;;;;;0.60;0.60;;;;;;;1.71;89.03;98732.97;29373;207;63004;-59
2023/02/05 02:09:01;;;;;;;0.60;0.60;;;;;;;1.71;89.15;98735.63;29373;281;63008;-68
2023/02/05 02:09:34;;;;;;;0.60;0.60;;;;;;;1.71;89.54;98732.12;29373;270;63005;-59
2023/02/05 02:10:08;;;;;;;0.60;0.60;;;;;;;1.71;89.20;98732.97;29373;212;63005;-68
2023/02/05 02:10:44;;;;;;;0.60;0.60;;;;;;;1.71;89.50;98732.12;29371;240;64009;-68
2023/02/05 02:11:20;;;;;;;1.08;1.08;;;;;;;1.70;89.25;98733.97;29373;292;63009;-70
2023/02/05 02:11:53;;;;;;;0.60;0.60;;;;;;;1.71;89.37;98735.63;29373;228;63005;-61
2023/02/05 02:12:32;;;;;;;11.57;10.82;;;;;;;1.72;89.32;98728.44;29364;322;65009;-59
2023/02/05 02:13:04;;;;;;;0.60;0.60;;;;;;;1.73;89.17;98728.25;29373;315;63004;-59
2023/02/05 02:13:37;;;;;;;0.50;0.50;;;;;;;1.70;89.17;98725.94;29373;298;63009;-59
2023/02/05 02:14:11;;;;;;;0.60;0.60;;;;;;;1.68;89.36;98731.50;29373;368;63004;-60
2023/02/05 02:14:48;;;;;;;0.60;0.60;;;;;;;1.66;89.39;98727.34;29373;293;63009;-60
2023/02/05 02:15:26;;;;;;;0.60;0.60;;;;;;;1.64;89.48;98729.38;29373;231;63004;-60
2023/02/05 02:15:59;;;;;;;0.60;0.60;;;;;;;1.61;89.61;98732.44;29371;214;64014;-59
2023/02/05 02:16:34;;;;;;;0.60;0.60;;;;;;;1.58;89.99;98724.78;29373;381;63005;-68
2023/02/05 02:17:12;;;;;;;0.60;0.60;;;;;;;1.58;89.94;98730.16;29371;304;64014;-68
2023/02/05 02:17:48;;;;;;;0.60;0.60;;;;;;;1.56;89.95;98719.63;29373;199;63010;-59
2023/02/05 02:18:26;;;;;;;0.60;0.60;;;;;;;1.56;90.07;98727.66;29371;332;64013;-60
2023/02/05 02:18:59;;;;;;;0.60;0.60;;;;;;;1.54;90.08;98720.84;29373;317;63005;-68
2023/02/05 02:20:02;;;;;;;0.60;0.60;;;;;;;1.54;90.29;98724.34;29373;222;63009;-59
2023/02/05 02:20:39;;;;;;;0.60;0.60;;;;;;;1.54;90.08;98720.84;29373;278;63004;-58
2023/02/05 02:21:47;;;;;;;0.60;0.60;;;;;;;1.52;90.29;98720.19;29372;314;64009;-67
2023/02/05 02:23:11;;;;;;;0.60;0.60;;;;;;;1.50;90.27;98723.06;29373;307;63000;-70
2023/02/05 02:24:10;;;;;;;0.60;0.60;;;;;;;1.49;90.35;98717.91;29371;207;64014;-59
2023/02/05 02:25:25;;;;;;;0.60;0.60;;;;;;;1.48;90.49;98713.56;29371;197;64009;-59
2023/02/05 02:26:42;;;;;;;0.60;0.60;;;;;;;1.46;90.64;98716.44;29371;274;64013;-69
2023/02/05 02:28:07;;;;;;;0.60;0.60;;;;;;;1.44;90.75;98709.62;29373;208;63005;-68
2023/02/05 02:28:58;;;;;;;0.60;0.60;;;;;;;1.44;90.86;98712.28;29374;202;63009;-70
2023/02/05 02:29:48;;;;;;;0.60;0.60;;;;;;;1.44;90.85;98707.78;29373;326;63004;-60
2023/02/05 02:30:30;;;;;;;0.60;0.60;;;;;;;1.45;90.69;98713.94;29373;360;63008;-60
2023/02/05 02:31:17;;;;;;;0.60;0.60;;;;;;;1.43;91.01;98715.97;29371;271;64008;-58
2023/02/05 02:32:02;;;;;;;0.68;0.68;;;;;;;1.42;90.59;98714.31;29373;202;63009;-68
2023/02/05 02:33:04;;;;;;;0.60;0.60;;;;;;;1.41;90.86;98718.03;29373;202;63000;-60
2023/02/05 02:33:47;;;;;;;0.60;0.60;;;;;;;1.41;90.82;98708.16;29395;300;63009;-68
2023/02/05 02:34:41;;;;;;;0.60;0.60;;;;;;;1.44;90.71;98712.28;29395;221;63005;-60
2023/02/05 02:35:53;;;;;;;0.70;0.70;;;;;;;1.46;90.55;98710.25;29371;228;64004;-69
2023/02/05 02:36:37;;;;;;;0.60;0.60;;;;;;;1.47;90.33;98707.41;29373;277;63004;-61
2023/02/05 02:37:13;;;;;;;0.60;0.60;;;;;;;1.48;90.27;98713.56;29373;298;63009;-68
2023/02/05 02:37:55;;;;;;;0.57;0.57;;;;;;;1.48;90.38;98710.91;29371;350;64008;-60
2023/02/05 02:38:47;;;;;;;0.60;0.60;;;;;;;1.50;90.04;98706.19;29373;370;63014;-68
2023/02/05 02:39:40;;;;;;;0.55;0.55;;;;;;;1.47;90.13;98706.56;29394;340;64005;-60
2023/02/05 02:40:28;;;;;;;0.60;0.60;;;;;;;1.46;90.11;98716.44;29395;297;63009;-60
2023/02/05 02:41:33;;;;;;;0.60;0.60;;;;;;;1.48;90.13;98710.91;29373;320;63005;-68
2023/02/05 02:42:17;;;;;;;0.60;0.60;;;;;;;1.46;90.31;98705.72;29373;292;63009;-60
2023/02/05 02:43:00;;;;;;;0.60;0.60;;;;;;;1.46;90.57;98704.91;29371;317;64009;-59
2023/02/05 02:43:49;;;;;;;0.60;0.60;;;;;;;1.44;90.47;98702.41;29373;255;63017;-60
2023/02/05 02:44:41;;;;;;;0.60;0.60;;;;;;;1.45;90.59;98704.06;29373;286;63004;-58
2023/02/05 02:45:16;;;;;;;0.60;0.60;;;;;;;1.45;90.32;98700.56;29372;234;64004;-60
2023/02/05 02:45:54;;;;;;;0.60;0.60;;;;;;;1.46;90.37;98710.25;29373;254;63008;-61
2023/02/05 02:46:38;;;;;;;0.60;0.60;;;;;;;1.46;90.65;98699.56;29373;243;63005;-60
2023/02/05 02:47:15;;;;;;;0.60;0.60;;;;;;;1.48;90.47;98701.03;29371;235;64014;-59
2023/02/05 02:47:52;;;;;;;0.50;0.50;;;;;;;1.46;90.38;98702.22;29373;213;63005;-59
2023/02/05 02:48:26;;;;;;;0.60;0.60;;;;;;;1.48;90.66;98703.69;29373;313;63009;-60
2023/02/05 02:49:02;;;;;;;0.60;0.60;;;;;;;1.48;90.63;98714.41;29373;298;63005;-59
2023/02/05 02:50:05;;;;;;;0.50;0.50;;;;;;;1.49;90.84;98704.53;29373;263;63009;-60
2023/02/05 02:50:43;;;;;;;0.60;0.60;;;;;;;1.50;91.01;98706.19;29373;290;63004;-60
2023/02/05 02:51:17;;;;;;;0.60;0.60;;;;;;;1.50;90.99;98704.34;29373;239;63016;-59
2023/02/05 02:51:51;;;;;;;0.60;0.60;;;;;;;1.50;91.06;98706.19;29373;212;63004;-60
2023/02/05 02:52:24;;;;;;;0.60;0.60;;;;;;;1.50;91.01;98706.19;29371;245;64013;-60